createdAt,value
2019-01-27T00:01:24.969Z,15.07
2019-01-27T00:03:54.215Z,16.57
2019-01-27T00:06:23.463Z,15.60
2019-01-27T00:08:52.803Z,16.13
2019-01-27T00:11:22.189Z,14.03
2019-01-27T00:13:51.634Z,14.73
2019-01-27T00:16:21.015Z,16.40
2019-01-27T00:18:50.252Z,14.87
2019-01-27T00:21:19.519Z,17.83
2019-01-27T00:23:48.742Z,16.13
2019-01-27T00:26:19.035Z,16.07
2019-01-27T00:28:48.334Z,15.50
2019-01-27T00:31:17.514Z,16.83
2019-01-27T00:33:46.759Z,15.47
2019-01-27T00:36:16.013Z,15.60
2019-01-27T00:38:45.255Z,15.87
2019-01-27T00:41:14.534Z,16.07
2019-01-27T00:43:43.767Z,14.53
2019-01-27T00:46:13.023Z,14.83
2019-01-27T00:48:43.030Z,18.23
2019-01-27T00:51:12.334Z,16.00
2019-01-27T00:53:41.499Z,15.30
2019-01-27T00:56:10.751Z,15.53
2019-01-27T00:58:39.983Z,15.00
2019-01-27T01:01:09.338Z,16.40
2019-01-27T01:03:38.585Z,15.37
2019-01-27T01:06:10.510Z,17.80
2019-01-27T01:08:39.746Z,14.20
2019-01-27T01:11:09.015Z,16.67
2019-01-27T01:13:57.333Z,16.67
2019-01-27T01:16:26.795Z,16.13
2019-01-27T01:18:55.955Z,16.43
2019-01-27T01:21:25.210Z,16.90
2019-01-27T01:23:54.441Z,17.77
2019-01-27T01:26:23.725Z,17.63
2019-01-27T01:28:52.887Z,22.03
2019-01-27T01:31:22.124Z,19.23
2019-01-27T01:33:51.297Z,20.23
2019-01-27T01:36:20.456Z,20.17
2019-01-27T01:38:49.770Z,20.40
2019-01-27T01:41:19.043Z,20.00
2019-01-27T01:43:48.294Z,20.77
2019-01-27T01:46:17.558Z,19.47
2019-01-27T01:48:46.889Z,20.80
2019-01-27T01:51:16.183Z,19.80
2019-01-27T01:53:45.371Z,21.43
2019-01-27T01:56:14.611Z,20.20
2019-01-27T01:58:43.908Z,23.33
2019-01-27T02:01:13.194Z,19.53
2019-01-27T02:03:42.382Z,22.80
2019-01-27T02:06:11.621Z,20.40
2019-01-27T02:08:40.876Z,21.87
2019-01-27T02:11:10.036Z,19.40
2019-01-27T02:13:39.379Z,21.63
2019-01-27T02:16:09.650Z,22.33
2019-01-27T02:18:40.002Z,19.67
2019-01-27T02:21:09.818Z,20.73
2019-01-27T02:23:39.373Z,21.17
2019-01-27T02:26:09.506Z,24.70
2019-01-27T02:28:38.967Z,22.40
2019-01-27T02:31:08.590Z,22.20
2019-01-27T02:33:37.855Z,22.63
2019-01-27T02:36:07.091Z,20.47
2019-01-27T02:38:36.423Z,20.53
2019-01-27T02:41:05.887Z,20.60
2019-01-27T02:43:35.144Z,22.00
2019-01-27T02:46:04.851Z,22.90
2019-01-27T02:48:34.100Z,21.57
2019-01-27T02:51:03.479Z,19.90
2019-01-27T02:53:32.782Z,20.13
2019-01-27T02:56:02.038Z,19.73
2019-01-27T02:58:31.267Z,19.17
2019-01-27T03:01:00.522Z,20.67
2019-01-27T03:03:29.749Z,20.07
2019-01-27T03:06:21.184Z,19.57
2019-01-27T03:08:59.188Z,19.23
2019-01-27T03:11:30.010Z,19.77
2019-01-27T03:13:59.170Z,20.30
2019-01-27T03:16:28.439Z,18.33
2019-01-27T03:18:57.678Z,18.17
2019-01-27T03:21:26.951Z,20.07
2019-01-27T03:23:56.105Z,16.73
2019-01-27T03:26:25.361Z,19.33
2019-01-27T03:28:54.523Z,16.97
2019-01-27T03:31:23.863Z,17.47
2019-01-27T03:33:53.025Z,14.90
2019-01-27T03:36:22.364Z,17.93
2019-01-27T03:38:51.661Z,15.53
2019-01-27T03:41:20.934Z,17.40
2019-01-27T03:43:50.270Z,17.53
2019-01-27T03:46:19.634Z,15.57
2019-01-27T03:48:48.786Z,16.43
2019-01-27T03:51:18.119Z,15.90
2019-01-27T03:53:47.387Z,15.70
2019-01-27T03:56:16.576Z,18.53
2019-01-27T03:58:45.804Z,15.63
2019-01-27T04:01:15.053Z,17.17
2019-01-27T04:03:44.302Z,14.17
2019-01-27T04:06:13.567Z,13.77
2019-01-27T04:08:42.722Z,16.27
2019-01-27T04:11:11.981Z,12.47
2019-01-27T04:13:41.232Z,15.43
2019-01-27T04:16:10.452Z,13.40
2019-01-27T04:18:39.692Z,16.67
2019-01-27T04:21:09.059Z,12.63
2019-01-27T04:23:38.285Z,14.90
2019-01-27T04:26:07.480Z,14.73
2019-01-27T04:28:36.787Z,15.70
2019-01-27T04:31:06.058Z,13.00
2019-01-27T04:33:35.296Z,14.43
2019-01-27T04:36:04.739Z,13.30
2019-01-27T04:38:34.021Z,16.17
2019-01-27T04:41:03.609Z,17.53
2019-01-27T04:43:32.801Z,14.83
2019-01-27T04:46:02.231Z,17.37
2019-01-27T04:48:31.417Z,14.27
2019-01-27T04:51:00.924Z,14.37
2019-01-27T04:53:30.198Z,16.67
2019-01-27T04:55:59.366Z,14.27
2019-01-27T04:58:28.547Z,15.53
2019-01-27T05:00:57.859Z,13.80
2019-01-27T05:03:40.109Z,14.90
2019-01-27T05:06:09.345Z,12.20
2019-01-27T05:08:38.522Z,13.80
2019-01-27T05:11:07.871Z,13.00
2019-01-27T05:13:37.234Z,13.67
2019-01-27T05:16:06.471Z,13.33
2019-01-27T05:18:35.664Z,13.60
2019-01-27T05:21:05.200Z,14.40
2019-01-27T05:23:34.467Z,14.33
2019-01-27T05:26:03.698Z,13.50
2019-01-27T05:28:32.952Z,13.07
2019-01-27T05:31:02.173Z,14.47
2019-01-27T05:33:31.433Z,13.63
2019-01-27T05:36:00.675Z,13.77
2019-01-27T05:38:29.934Z,12.30
2019-01-27T05:40:59.200Z,13.53
2019-01-27T05:43:28.457Z,12.40
2019-01-27T05:45:57.686Z,15.40
2019-01-27T05:48:26.902Z,13.73
2019-01-27T05:50:56.154Z,13.60
2019-01-27T05:53:25.418Z,13.47
2019-01-27T05:55:54.653Z,14.57
2019-01-27T05:58:23.909Z,11.87
2019-01-27T06:00:53.134Z,13.23
2019-01-27T06:03:22.317Z,11.63
2019-01-27T06:05:51.471Z,13.13
2019-01-27T06:08:20.775Z,13.63
2019-01-27T06:10:49.964Z,12.13
2019-01-27T06:13:19.226Z,12.83
2019-01-27T06:15:48.457Z,10.27
2019-01-27T06:18:17.725Z,13.50
2019-01-27T06:20:46.951Z,11.53
2019-01-27T06:23:16.105Z,10.33
2019-01-27T06:25:45.293Z,12.60
2019-01-27T06:28:14.573Z,10.47
2019-01-27T06:30:43.838Z,12.93
2019-01-27T06:33:22.277Z,12.30
2019-01-27T06:35:51.588Z,13.80
2019-01-27T06:38:20.815Z,12.07
2019-01-27T06:40:50.100Z,11.63
2019-01-27T06:43:19.325Z,14.60
2019-01-27T06:45:48.666Z,13.30
2019-01-27T06:48:17.909Z,13.67
2019-01-27T06:50:47.240Z,12.80
2019-01-27T06:53:16.483Z,14.40
2019-01-27T06:55:45.886Z,13.27
2019-01-27T06:58:15.094Z,14.73
2019-01-27T07:01:02.298Z,13.40
2019-01-27T07:03:53.540Z,15.20
2019-01-27T07:06:37.331Z,14.13
2019-01-27T07:09:33.151Z,17.17
2019-01-27T07:12:21.737Z,13.93
2019-01-27T07:15:23.352Z,14.07
2019-01-27T07:18:10.390Z,12.57
2019-01-27T07:21:07.878Z,13.30
2019-01-27T07:24:08.946Z,14.77
2019-01-27T07:26:44.123Z,12.10
2019-01-27T07:29:44.606Z,13.83
2019-01-27T07:32:31.962Z,13.60
2019-01-27T07:35:21.315Z,12.87
2019-01-27T07:38:14.930Z,13.17
2019-01-27T07:41:06.395Z,10.43
2019-01-27T07:43:47.491Z,12.73
2019-01-27T07:46:35.726Z,10.03
2019-01-27T07:49:23.103Z,9.90
2019-01-27T07:52:09.871Z,8.40
2019-01-27T07:54:55.328Z,9.77
2019-01-27T07:57:42.283Z,10.37
2019-01-27T08:00:30.591Z,10.60
2019-01-27T08:03:18.808Z,10.97
2019-01-27T08:06:06.990Z,8.13
2019-01-27T08:08:51.553Z,10.23
2019-01-27T08:11:37.623Z,8.40
2019-01-27T08:14:23.250Z,9.63
2019-01-27T08:17:23.798Z,8.40
2019-01-27T08:20:01.352Z,10.27
2019-01-27T08:22:41.200Z,8.13
2019-01-27T08:25:46.720Z,10.60
2019-01-27T08:28:47.304Z,8.27
2019-01-27T08:31:25.367Z,10.20
2019-01-27T08:34:06.670Z,8.27
2019-01-27T08:36:41.969Z,9.73
2019-01-27T08:39:39.396Z,6.93
2019-01-27T08:42:26.370Z,8.50
2019-01-27T08:45:14.590Z,8.50
2019-01-27T08:47:43.823Z,9.50
2019-01-27T08:50:16.167Z,7.63
2019-01-27T08:52:45.513Z,8.77
2019-01-27T08:55:16.075Z,9.47
2019-01-27T08:57:45.322Z,6.90
2019-01-27T09:00:18.152Z,8.10
2019-01-27T09:02:54.731Z,9.40
2019-01-27T09:05:38.189Z,7.53
2019-01-27T09:08:29.419Z,10.43
2019-01-27T09:11:13.626Z,8.03
2019-01-27T09:14:00.548Z,9.50
2019-01-27T09:16:48.734Z,9.00
2019-01-27T09:19:30.503Z,9.93
2019-01-27T09:22:33.846Z,8.03
2019-01-27T09:25:20.685Z,7.57
2019-01-27T09:28:00.120Z,7.80
2019-01-27T09:30:51.243Z,8.87
2019-01-27T09:33:42.458Z,7.50
2019-01-27T09:36:33.677Z,8.43
2019-01-27T09:39:27.958Z,8.83
2019-01-27T09:42:21.118Z,5.97
2019-01-27T09:45:07.262Z,5.33
2019-01-27T09:47:45.604Z,4.93
2019-01-27T09:50:23.538Z,5.90
2019-01-27T09:53:07.725Z,4.27
2019-01-27T09:56:02.097Z,4.90
2019-01-27T09:58:49.259Z,5.57
2019-01-27T10:01:35.786Z,3.83
2019-01-27T10:04:39.478Z,4.27
2019-01-27T10:07:27.737Z,4.60
2019-01-27T10:10:23.458Z,3.90
2019-01-27T10:13:15.773Z,3.80
2019-01-27T10:16:15.995Z,3.73
2019-01-27T10:19:10.691Z,4.70
2019-01-27T10:22:13.891Z,3.63
2019-01-27T10:25:01.101Z,4.43
2019-01-27T10:27:49.278Z,3.83
2019-01-27T10:30:54.815Z,3.90
2019-01-27T10:33:55.015Z,4.40
2019-01-27T10:36:43.289Z,3.60
2019-01-27T10:39:32.215Z,4.20
2019-01-27T10:42:12.401Z,4.07
2019-01-27T10:44:52.352Z,4.73
2019-01-27T10:47:30.343Z,3.40
2019-01-27T10:50:07.416Z,4.30
2019-01-27T10:52:55.663Z,3.93
2019-01-27T10:55:48.292Z,3.43
2019-01-27T10:58:36.564Z,3.10
2019-01-27T11:01:27.856Z,4.20
2019-01-27T11:04:07.904Z,3.63
2019-01-27T11:07:02.116Z,3.07
2019-01-27T11:09:48.890Z,3.13
2019-01-27T11:12:32.351Z,3.50
2019-01-27T11:15:19.616Z,2.50
2019-01-27T11:17:59.946Z,3.20
2019-01-27T11:20:48.191Z,3.20
2019-01-27T11:23:26.183Z,3.00
2019-01-27T11:26:05.689Z,2.60
2019-01-27T11:29:08.999Z,2.57
2019-01-27T11:32:00.009Z,3.20
2019-01-27T11:34:37.076Z,3.13
2019-01-27T11:37:40.587Z,2.70
2019-01-27T11:40:41.975Z,4.27
2019-01-27T11:43:29.034Z,2.47
2019-01-27T11:46:16.875Z,3.20
2019-01-27T11:49:04.019Z,3.97
2019-01-27T11:51:38.514Z,3.90
2019-01-27T11:54:07.763Z,5.73
2019-01-27T11:56:36.998Z,4.50
2019-01-27T11:59:06.291Z,2.93
2019-01-27T12:01:35.531Z,2.73
2019-01-27T12:04:04.936Z,2.80
2019-01-27T12:06:34.235Z,3.07
2019-01-27T12:09:04.676Z,2.80
2019-01-27T12:11:33.919Z,2.83
2019-01-27T12:14:03.169Z,2.70
2019-01-27T12:16:32.402Z,2.73
2019-01-27T12:19:01.590Z,2.60
2019-01-27T12:21:30.802Z,2.30
2019-01-27T12:24:00.067Z,2.20
2019-01-27T12:26:29.295Z,2.77
2019-01-27T12:28:58.558Z,2.53
2019-01-27T12:31:27.796Z,2.40
2019-01-27T12:33:57.198Z,2.57
2019-01-27T12:36:26.383Z,2.90
2019-01-27T12:38:57.129Z,3.60
2019-01-27T12:41:26.398Z,4.03
2019-01-27T12:43:55.671Z,2.80
2019-01-27T12:46:24.944Z,2.97
2019-01-27T12:48:54.861Z,3.27
2019-01-27T12:51:24.147Z,3.10
2019-01-27T12:53:53.452Z,3.10
2019-01-27T12:56:23.122Z,3.43
2019-01-27T12:58:52.579Z,3.67
2019-01-27T13:01:21.924Z,3.37
2019-01-27T13:03:51.243Z,3.63
2019-01-27T13:06:20.498Z,3.47
2019-01-27T13:08:49.846Z,3.87
2019-01-27T13:11:19.271Z,3.70
2019-01-27T13:13:48.626Z,3.70
2019-01-27T13:16:18.006Z,3.40
2019-01-27T13:18:47.238Z,3.20
2019-01-27T13:21:16.515Z,4.50
2019-01-27T13:23:45.750Z,4.23
2019-01-27T13:26:14.945Z,3.43
2019-01-27T13:28:44.178Z,3.93
2019-01-27T13:31:13.452Z,3.90
2019-01-27T13:33:42.719Z,3.33
2019-01-27T13:36:12.279Z,3.60
2019-01-27T13:38:41.507Z,4.80
2019-01-27T13:41:10.783Z,3.23
2019-01-27T13:43:40.151Z,4.00
2019-01-27T13:46:09.475Z,3.60
2019-01-27T13:48:38.667Z,3.23
2019-01-27T13:51:07.851Z,3.40
2019-01-27T13:53:37.029Z,3.77
2019-01-27T13:56:06.509Z,3.50
2019-01-27T13:58:35.786Z,3.37
2019-01-27T14:01:05.412Z,3.30
2019-01-27T14:03:34.694Z,3.83
2019-01-27T14:06:04.035Z,3.20
2019-01-27T14:08:33.229Z,3.40
2019-01-27T14:11:02.535Z,2.87
2019-01-27T14:13:32.065Z,3.07
2019-01-27T14:16:01.444Z,3.53
2019-01-27T14:18:30.695Z,2.97
2019-01-27T14:21:00.007Z,3.63
2019-01-27T14:23:29.346Z,3.80
2019-01-27T14:25:58.549Z,3.17
2019-01-27T14:28:27.805Z,3.70
2019-01-27T14:30:57.041Z,3.70
2019-01-27T14:33:26.306Z,3.17
2019-01-27T14:35:55.450Z,4.47
2019-01-27T14:38:24.630Z,3.10
2019-01-27T14:40:53.896Z,2.60
2019-01-27T14:43:23.151Z,4.03
2019-01-27T14:45:52.380Z,2.20
2019-01-27T14:48:21.547Z,2.80
2019-01-27T14:50:51.060Z,3.27
2019-01-27T14:53:20.324Z,2.90
2019-01-27T14:55:49.569Z,2.23
2019-01-27T14:58:18.819Z,2.93
2019-01-27T15:00:48.107Z,2.37
2019-01-27T15:03:17.377Z,2.50
2019-01-27T15:05:46.682Z,2.70
2019-01-27T15:08:16.088Z,2.50
2019-01-27T15:10:46.170Z,2.77
2019-01-27T15:13:15.442Z,2.40
2019-01-27T15:15:44.593Z,1.90
2019-01-27T15:18:13.807Z,2.23
2019-01-27T15:20:46.258Z,2.80
2019-01-27T15:23:15.759Z,2.73
2019-01-27T15:25:45.263Z,3.20
2019-01-27T15:28:14.415Z,2.73
2019-01-27T15:30:43.672Z,3.00
2019-01-27T15:33:12.831Z,2.90
2019-01-27T15:35:42.044Z,3.73
2019-01-27T15:38:11.275Z,3.17
2019-01-27T15:40:40.544Z,3.60
2019-01-27T15:43:09.717Z,3.40
2019-01-27T15:45:38.984Z,4.67
2019-01-27T15:48:08.217Z,3.27
2019-01-27T15:50:37.695Z,3.60
2019-01-27T15:53:07.131Z,5.40
2019-01-27T15:55:36.964Z,6.50
2019-01-27T15:58:06.701Z,3.07
2019-01-27T16:00:36.056Z,4.20
2019-01-27T16:03:05.630Z,3.47
2019-01-27T16:05:34.883Z,4.00
2019-01-27T16:08:04.336Z,3.63
2019-01-27T16:10:33.660Z,4.63
2019-01-27T16:13:02.845Z,3.93
2019-01-27T16:15:33.206Z,5.00
2019-01-27T16:18:02.451Z,3.70
2019-01-27T16:20:31.730Z,4.60
2019-01-27T16:23:26.233Z,4.37
2019-01-27T16:25:56.882Z,4.80
2019-01-27T16:28:26.143Z,3.77
2019-01-27T16:31:20.595Z,5.97
2019-01-27T16:34:08.775Z,4.83
2019-01-27T16:39:10.848Z,5.50
2019-01-27T16:41:40.222Z,5.40
2019-01-27T16:44:10.703Z,6.33
2019-01-27T16:46:39.919Z,6.13
2019-01-27T16:49:10.719Z,7.20
2019-01-27T16:51:40.136Z,8.30
2019-01-27T16:54:09.368Z,6.80
2019-01-27T16:56:38.618Z,7.47
2019-01-27T16:59:07.851Z,7.70
2019-01-27T17:01:37.102Z,9.87
2019-01-27T17:04:06.359Z,7.10
2019-01-27T17:06:35.517Z,7.70
2019-01-27T17:09:08.248Z,8.43
2019-01-27T17:11:37.910Z,7.83
2019-01-27T17:14:07.349Z,8.47
2019-01-27T17:16:36.514Z,11.23
2019-01-27T17:19:05.951Z,8.13
2019-01-27T17:21:35.106Z,8.93
2019-01-27T17:24:04.722Z,8.23
2019-01-27T17:26:34.004Z,8.23
2019-01-27T17:29:03.263Z,7.97
2019-01-27T17:31:32.491Z,8.37
2019-01-27T17:34:01.759Z,11.00
2019-01-27T17:36:31.091Z,9.07
2019-01-27T17:39:00.343Z,11.83
2019-01-27T17:41:29.602Z,10.67
2019-01-27T17:43:58.837Z,10.03
2019-01-27T17:46:28.219Z,10.17
2019-01-27T17:48:57.475Z,13.00
2019-01-27T17:51:26.650Z,10.97
2019-01-27T17:53:59.994Z,13.27
2019-01-27T17:56:29.250Z,10.23
2019-01-27T17:59:11.172Z,11.90
2019-01-27T18:02:08.641Z,14.13
2019-01-27T18:04:53.128Z,9.13
2019-01-27T18:07:30.173Z,14.27
2019-01-27T18:10:16.999Z,9.87
2019-01-27T18:12:59.899Z,8.17
2019-01-27T18:15:29.281Z,9.20
2019-01-27T18:17:58.542Z,8.70
2019-01-27T18:20:27.922Z,9.67
2019-01-27T18:22:57.168Z,11.83
2019-01-27T18:25:26.551Z,11.90
2019-01-27T18:27:55.784Z,7.17
2019-01-27T18:30:25.723Z,9.27
2019-01-27T18:32:55.035Z,5.97
2019-01-27T18:35:25.980Z,3.90
2019-01-27T18:37:55.545Z,4.30
2019-01-27T18:40:24.787Z,4.13
2019-01-27T18:42:54.131Z,3.80
2019-01-27T18:45:23.450Z,8.17
2019-01-27T18:47:52.744Z,6.40
2019-01-27T18:50:22.045Z,7.40
2019-01-27T18:52:58.746Z,3.90
2019-01-27T18:55:49.831Z,10.80
2019-01-27T18:58:25.178Z,16.80
2019-01-27T19:01:28.796Z,5.10
2019-01-27T19:04:19.819Z,9.00
2019-01-27T19:07:06.954Z,12.27
2019-01-27T19:09:42.884Z,11.60
2019-01-27T19:12:37.253Z,44.90
2019-01-27T19:15:33.663Z,11.63
2019-01-27T19:18:25.002Z,8.30
2019-01-27T19:21:16.000Z,12.83
2019-01-27T19:24:08.139Z,5.13
2019-01-27T19:26:54.639Z,4.13
2019-01-27T19:30:02.558Z,4.80
2019-01-27T19:32:39.351Z,5.93
2019-01-27T19:35:15.689Z,13.50
2019-01-27T19:38:10.013Z,52.67
2019-01-27T19:40:44.107Z,18.40
2019-01-27T19:43:25.492Z,10.87
2019-01-27T19:46:10.558Z,3.63
2019-01-27T19:48:52.019Z,6.37
2019-01-27T19:51:41.615Z,3.90
2019-01-27T19:54:19.706Z,31.00
2019-01-27T19:57:19.343Z,20.57
2019-01-27T20:00:08.568Z,3.10
2019-01-27T20:02:59.289Z,6.30
2019-01-27T20:05:47.519Z,5.70
2019-01-27T20:08:26.583Z,7.17
2019-01-27T20:11:21.118Z,2.70
2019-01-27T20:14:15.727Z,3.23
2019-01-27T20:17:09.857Z,2.80
2019-01-27T20:19:58.039Z,2.30
2019-01-27T20:22:52.566Z,5.27
2019-01-27T20:25:43.874Z,3.60
2019-01-27T20:28:34.939Z,3.00
2019-01-27T20:31:23.385Z,1.87
2019-01-27T20:34:19.335Z,2.83
2019-01-27T20:37:05.302Z,2.50
2019-01-27T20:39:43.434Z,3.63
2019-01-27T20:42:38.979Z,3.33
2019-01-27T20:45:23.198Z,1.70
2019-01-27T20:48:23.599Z,5.20
2019-01-27T20:51:06.051Z,5.07
2019-01-27T20:53:49.691Z,5.70
2019-01-27T20:56:43.963Z,5.40
2019-01-27T20:59:35.671Z,4.60
2019-01-27T21:02:33.149Z,3.77
2019-01-27T21:05:12.978Z,3.67
2019-01-27T21:08:01.179Z,5.53
2019-01-27T21:10:46.702Z,3.00
2019-01-27T21:13:40.722Z,3.17
2019-01-27T21:16:19.094Z,3.40
2019-01-27T21:19:00.195Z,3.57
2019-01-27T21:21:29.352Z,4.20
2019-01-27T21:23:58.612Z,4.57
2019-01-27T21:26:27.838Z,4.37
2019-01-27T21:28:57.096Z,5.63
2019-01-27T21:31:26.323Z,5.83
2019-01-27T21:33:56.011Z,4.00
2019-01-27T21:36:25.400Z,4.27
2019-01-27T21:38:54.651Z,6.63
2019-01-27T21:41:23.864Z,3.87
2019-01-27T21:43:53.079Z,4.83
2019-01-27T21:46:22.302Z,4.33
2019-01-27T21:48:51.554Z,5.33
2019-01-27T21:51:20.768Z,5.43
2019-01-27T21:53:50.017Z,4.97
2019-01-27T21:56:19.252Z,6.00
2019-01-27T21:58:48.429Z,4.50
2019-01-27T22:01:17.671Z,5.30
2019-01-27T22:03:46.950Z,6.17
2019-01-27T22:06:16.205Z,9.73
2019-01-27T22:08:45.387Z,15.33
2019-01-27T22:11:14.615Z,8.17
2019-01-27T22:13:43.991Z,6.70
2019-01-27T22:16:13.219Z,5.47
2019-01-27T22:18:42.474Z,5.67
2019-01-27T22:21:11.703Z,6.20
2019-01-27T22:23:40.973Z,7.20
2019-01-27T22:26:10.131Z,8.13
2019-01-27T22:28:39.316Z,10.67
2019-01-27T22:31:08.546Z,8.70
2019-01-27T22:33:37.806Z,7.87
2019-01-27T22:36:07.030Z,8.13
2019-01-27T22:38:36.291Z,8.70
2019-01-27T22:41:05.539Z,7.90
2019-01-27T22:43:34.719Z,12.27
2019-01-27T22:46:04.083Z,9.20
2019-01-27T22:48:33.240Z,6.13
2019-01-27T22:51:02.493Z,6.60
2019-01-27T22:53:31.710Z,5.33
2019-01-27T22:56:00.958Z,6.43
2019-01-27T22:58:30.210Z,5.60
2019-01-27T23:01:05.483Z,6.17
2019-01-27T23:03:37.719Z,5.33
2019-01-27T23:06:06.882Z,6.37
2019-01-27T23:08:36.107Z,6.00
2019-01-27T23:11:05.590Z,6.30
2019-01-27T23:13:34.823Z,5.83
2019-01-27T23:16:04.662Z,6.77
2019-01-27T23:18:33.887Z,6.77
2019-01-27T23:21:03.143Z,7.07
2019-01-27T23:23:32.290Z,8.13
2019-01-27T23:26:01.465Z,8.20
2019-01-27T23:28:30.710Z,8.93
2019-01-27T23:30:59.959Z,9.00
2019-01-27T23:33:29.188Z,9.90
2019-01-27T23:35:58.435Z,9.00
2019-01-27T23:38:27.664Z,10.60
2019-01-27T23:40:56.923Z,10.03
2019-01-27T23:43:26.097Z,11.53
2019-01-27T23:45:55.283Z,12.20
2019-01-27T23:48:24.447Z,10.73
2019-01-27T23:50:53.714Z,12.43
2019-01-27T23:53:22.943Z,11.53
2019-01-27T23:55:52.190Z,13.03
2019-01-27T23:58:21.358Z,11.97
